sensor_id;sensor_type;location;lat;lon;timestamp;P1;durP1;ratioP1;P2;durP2;ratioP2
12437;SDS011;6283;51.330;12.374;2024-02-26T02:30:40;13.43;;;8.80;;
12437;SDS011;6283;51.330;12.374;2024-02-26T02:33:05;12.33;;;8.13;;
12437;SDS011;6283;51.330;12.374;2024-02-26T02:35:31;12.83;;;9.13;;
12437;SDS011;6283;51.330;12.374;2024-02-26T02:37:57;13.30;;;8.47;;
12437;SDS011;6283;51.330;12.374;2024-02-26T02:40:23;15.90;;;8.67;;
12437;SDS011;6283;51.330;12.374;2024-02-26T02:42:49;13.43;;;8.60;;
12437;SDS011;6283;51.330;12.374;2024-02-26T02:45:14;13.80;;;9.40;;
12437;SDS011;6283;51.330;12.374;2024-02-26T02:47:40;14.23;;;8.53;;
12437;SDS011;6283;51.330;12.374;2024-02-26T02:50:06;13.03;;;8.77;;
12437;SDS011;6283;51.330;12.374;2024-02-26T02:52:31;15.37;;;8.93;;
12437;SDS011;6283;51.330;12.374;2024-02-26T02:54:57;11.77;;;8.30;;
12437;SDS011;6283;51.330;12.374;2024-02-26T02:57:23;11.27;;;8.40;;
12437;SDS011;6283;51.330;12.374;2024-02-26T02:59:49;14.23;;;8.30;;
12437;SDS011;6283;51.330;12.374;2024-02-26T03:02:15;10.77;;;7.73;;
12437;SDS011;6283;51.330;12.374;2024-02-26T03:04:40;11.67;;;7.53;;
12437;SDS011;6283;51.330;12.374;2024-02-26T03:07:06;11.40;;;7.97;;
12437;SDS011;6283;51.330;12.374;2024-02-26T03:09:31;11.63;;;7.80;;
12437;SDS011;6283;51.330;12.374;2024-02-26T03:11:57;14.30;;;8.57;;
12437;SDS011;6283;51.330;12.374;2024-02-26T03:14:23;12.27;;;8.07;;
12437;SDS011;6283;51.330;12.374;2024-02-26T03:16:50;14.47;;;8.13;;
12437;SDS011;6283;51.330;12.374;2024-02-26T03:19:19;14.37;;;8.03;;
12437;SDS011;6283;51.330;12.374;2024-02-26T03:21:44;11.43;;;7.53;;
12437;SDS011;6283;51.330;12.374;2024-02-26T03:24:10;13.10;;;7.60;;
12437;SDS011;6283;51.330;12.374;2024-02-26T03:26:37;13.67;;;7.87;;
12437;SDS011;6283;51.330;12.374;2024-02-26T03:29:03;18.33;;;8.27;;
12437;SDS011;6283;51.330;12.374;2024-02-26T03:31:29;11.80;;;7.47;;
12437;SDS011;6283;51.330;12.374;2024-02-26T03:33:55;10.47;;;7.60;;
12437;SDS011;6283;51.330;12.374;2024-02-26T03:36:20;11.57;;;7.63;;
12437;SDS011;6283;51.330;12.374;2024-02-26T03:38:46;13.07;;;8.63;;
12437;SDS011;6283;51.330;12.374;2024-02-26T03:41:13;14.40;;;7.63;;
12437;SDS011;6283;51.330;12.374;2024-02-26T03:43:38;11.83;;;8.17;;
12437;SDS011;6283;51.330;12.374;2024-02-26T03:46:07;13.10;;;8.70;;
12437;SDS011;6283;51.330;12.374;2024-02-26T03:48:34;14.10;;;8.90;;
12437;SDS011;6283;51.330;12.374;2024-02-26T03:51:00;13.37;;;9.50;;
12437;SDS011;6283;51.330;12.374;2024-02-26T03:53:26;15.70;;;10.10;;
12437;SDS011;6283;51.330;12.374;2024-02-26T03:55:51;16.03;;;10.03;;
12437;SDS011;6283;51.330;12.374;2024-02-26T03:58:17;14.50;;;9.03;;
12437;SDS011;6283;51.330;12.374;2024-02-26T04:00:43;19.30;;;10.83;;
12437;SDS011;6283;51.330;12.374;2024-02-26T04:03:09;16.53;;;10.50;;
12437;SDS011;6283;51.330;12.374;2024-02-26T04:05:35;18.77;;;10.83;;
12437;SDS011;6283;51.330;12.374;2024-02-26T04:08:01;17.50;;;10.70;;
12437;SDS011;6283;51.330;12.374;2024-02-26T04:10:26;21.57;;;11.07;;
12437;SDS011;6283;51.330;12.374;2024-02-26T04:12:52;16.87;;;11.00;;
12437;SDS011;6283;51.330;12.374;2024-02-26T04:15:17;18.63;;;11.20;;
12437;SDS011;6283;51.330;12.374;2024-02-26T04:17:43;19.60;;;11.50;;
12437;SDS011;6283;51.330;12.374;2024-02-26T04:20:13;21.73;;;12.60;;
12437;SDS011;6283;51.330;12.374;2024-02-26T04:22:40;19.60;;;12.20;;
12437;SDS011;6283;51.330;12.374;2024-02-26T04:25:06;17.90;;;12.23;;
12437;SDS011;6283;51.330;12.374;2024-02-26T04:27:32;20.83;;;12.53;;
12437;SDS011;6283;51.330;12.374;2024-02-26T04:29:57;21.97;;;13.23;;
12437;SDS011;6283;51.330;12.374;2024-02-26T04:32:23;20.93;;;12.53;;
12437;SDS011;6283;51.330;12.374;2024-02-26T04:34:49;23.33;;;13.97;;
12437;SDS011;6283;51.330;12.374;2024-02-26T04:37:14;21.73;;;13.63;;
12437;SDS011;6283;51.330;12.374;2024-02-26T04:39:40;23.50;;;13.73;;
12437;SDS011;6283;51.330;12.374;2024-02-26T04:42:05;22.03;;;13.77;;
12437;SDS011;6283;51.330;12.374;2024-02-26T04:44:31;23.53;;;14.37;;
12437;SDS011;6283;51.330;12.374;2024-02-26T04:46:57;24.20;;;14.47;;
12437;SDS011;6283;51.330;12.374;2024-02-26T04:49:22;23.80;;;14.47;;
12437;SDS011;6283;51.330;12.374;2024-02-26T04:51:48;27.50;;;14.97;;
12437;SDS011;6283;51.330;12.374;2024-02-26T04:54:13;27.10;;;14.57;;
12437;SDS011;6283;51.330;12.374;2024-02-26T04:56:39;22.27;;;14.00;;
12437;SDS011;6283;51.330;12.374;2024-02-26T04:59:05;24.90;;;14.97;;
12437;SDS011;6283;51.330;12.374;2024-02-26T05:01:30;25.63;;;14.37;;
12437;SDS011;6283;51.330;12.374;2024-02-26T05:03:56;23.50;;;14.07;;
12437;SDS011;6283;51.330;12.374;2024-02-26T05:06:21;24.93;;;15.50;;
12437;SDS011;6283;51.330;12.374;2024-02-26T05:08:47;23.43;;;14.87;;
12437;SDS011;6283;51.330;12.374;2024-02-26T05:11:12;23.83;;;14.77;;
12437;SDS011;6283;51.330;12.374;2024-02-26T05:13:38;22.43;;;14.10;;
12437;SDS011;6283;51.330;12.374;2024-02-26T05:16:04;25.60;;;14.53;;
12437;SDS011;6283;51.330;12.374;2024-02-26T05:18:30;21.40;;;14.33;;
12437;SDS011;6283;51.330;12.374;2024-02-26T05:20:55;22.90;;;14.40;;
12437;SDS011;6283;51.330;12.374;2024-02-26T05:23:21;23.73;;;14.70;;
12437;SDS011;6283;51.330;12.374;2024-02-26T05:25:48;26.57;;;14.70;;
12437;SDS011;6283;51.330;12.374;2024-02-26T05:28:14;29.00;;;14.37;;
12437;SDS011;6283;51.330;12.374;2024-02-26T05:30:41;23.13;;;13.90;;
12437;SDS011;6283;51.330;12.374;2024-02-26T05:33:07;23.00;;;14.60;;
12437;SDS011;6283;51.330;12.374;2024-02-26T05:35:33;21.77;;;14.03;;
12437;SDS011;6283;51.330;12.374;2024-02-26T05:37:58;21.27;;;14.03;;
12437;SDS011;6283;51.330;12.374;2024-02-26T05:40:24;23.00;;;13.67;;
12437;SDS011;6283;51.330;12.374;2024-02-26T05:42:49;24.80;;;14.03;;
12437;SDS011;6283;51.330;12.374;2024-02-26T05:45:15;21.93;;;14.33;;
12437;SDS011;6283;51.330;12.374;2024-02-26T05:47:41;24.97;;;14.70;;
12437;SDS011;6283;51.330;12.374;2024-02-26T05:50:10;20.90;;;13.70;;
12437;SDS011;6283;51.330;12.374;2024-02-26T05:52:36;21.77;;;13.43;;
12437;SDS011;6283;51.330;12.374;2024-02-26T05:55:05;20.73;;;13.23;;
12437;SDS011;6283;51.330;12.374;2024-02-26T05:57:31;23.80;;;14.67;;
12437;SDS011;6283;51.330;12.374;2024-02-26T05:59:57;22.43;;;13.33;;
12437;SDS011;6283;51.330;12.374;2024-02-26T06:02:25;22.03;;;13.40;;
12437;SDS011;6283;51.330;12.374;2024-02-26T06:04:51;20.23;;;13.30;;
12437;SDS011;6283;51.330;12.374;2024-02-26T06:07:17;20.80;;;12.53;;
12437;SDS011;6283;51.330;12.374;2024-02-26T06:09:42;26.70;;;12.73;;
12437;SDS011;6283;51.330;12.374;2024-02-26T06:12:08;25.57;;;14.63;;
12437;SDS011;6283;51.330;12.374;2024-02-26T06:14:33;22.47;;;13.23;;
12437;SDS011;6283;51.330;12.374;2024-02-26T06:16:59;21.27;;;12.77;;
12437;SDS011;6283;51.330;12.374;2024-02-26T06:19:25;24.13;;;13.10;;
12437;SDS011;6283;51.330;12.374;2024-02-26T06:21:50;20.87;;;13.00;;
12437;SDS011;6283;51.330;12.374;2024-02-26T06:24:16;20.53;;;12.83;;
12437;SDS011;6283;51.330;12.374;2024-02-26T06:26:42;24.20;;;13.80;;
12437;SDS011;6283;51.330;12.374;2024-02-26T06:29:07;19.83;;;12.37;;
12437;SDS011;6283;51.330;12.374;2024-02-26T06:31:33;23.40;;;12.37;;
12437;SDS011;6283;51.330;12.374;2024-02-26T06:33:58;19.23;;;12.67;;
12437;SDS011;6283;51.330;12.374;2024-02-26T06:36:24;20.17;;;12.63;;
12437;SDS011;6283;51.330;12.374;2024-02-26T06:38:50;19.40;;;12.80;;
12437;SDS011;6283;51.330;12.374;2024-02-26T06:41:18;23.13;;;12.73;;
12437;SDS011;6283;51.330;12.374;2024-02-26T06:43:44;24.00;;;12.77;;
12437;SDS011;6283;51.330;12.374;2024-02-26T06:46:10;21.73;;;12.07;;
12437;SDS011;6283;51.330;12.374;2024-02-26T06:48:36;19.97;;;11.53;;
12437;SDS011;6283;51.330;12.374;2024-02-26T06:51:02;19.70;;;12.13;;
12437;SDS011;6283;51.330;12.374;2024-02-26T06:53:28;23.77;;;12.93;;
12437;SDS011;6283;51.330;12.374;2024-02-26T06:55:53;19.40;;;12.00;;
12437;SDS011;6283;51.330;12.374;2024-02-26T06:58:19;21.83;;;11.57;;
12437;SDS011;6283;51.330;12.374;2024-02-26T07:00:44;19.33;;;11.23;;
12437;SDS011;6283;51.330;12.374;2024-02-26T07:03:11;34.97;;;13.90;;
12437;SDS011;6283;51.330;12.374;2024-02-26T07:05:38;18.80;;;12.17;;
12437;SDS011;6283;51.330;12.374;2024-02-26T07:08:04;22.23;;;12.30;;
12437;SDS011;6283;51.330;12.374;2024-02-26T07:10:30;20.70;;;11.63;;
12437;SDS011;6283;51.330;12.374;2024-02-26T07:12:56;21.77;;;11.80;;
12437;SDS011;6283;51.330;12.374;2024-02-26T07:15:21;19.20;;;12.43;;
12437;SDS011;6283;51.330;12.374;2024-02-26T07:17:47;17.93;;;11.37;;
12437;SDS011;6283;51.330;12.374;2024-02-26T07:20:14;16.30;;;11.60;;
12437;SDS011;6283;51.330;12.374;2024-02-26T07:22:40;20.33;;;10.60;;
12437;SDS011;6283;51.330;12.374;2024-02-26T07:25:07;18.90;;;12.47;;
12437;SDS011;6283;51.330;12.374;2024-02-26T07:27:34;17.97;;;11.07;;
12437;SDS011;6283;51.330;12.374;2024-02-26T07:29:59;16.13;;;11.20;;
12437;SDS011;6283;51.330;12.374;2024-02-26T07:32:25;14.90;;;10.77;;
12437;SDS011;6283;51.330;12.374;2024-02-26T07:34:51;13.63;;;9.93;;
12437;SDS011;6283;51.330;12.374;2024-02-26T07:37:16;17.67;;;11.37;;
12437;SDS011;6283;51.330;12.374;2024-02-26T07:39:42;15.07;;;10.20;;
12437;SDS011;6283;51.330;12.374;2024-02-26T07:42:07;16.97;;;10.67;;
12437;SDS011;6283;51.330;12.374;2024-02-26T07:44:33;17.50;;;10.47;;
12437;SDS011;6283;51.330;12.374;2024-02-26T07:46:59;17.90;;;11.53;;
12437;SDS011;6283;51.330;12.374;2024-02-26T07:49:24;14.63;;;10.40;;
12437;SDS011;6283;51.330;12.374;2024-02-26T07:51:50;14.83;;;10.30;;
12437;SDS011;6283;51.330;12.374;2024-02-26T07:54:16;14.77;;;10.43;;
12437;SDS011;6283;51.330;12.374;2024-02-26T07:56:42;14.90;;;9.87;;
12437;SDS011;6283;51.330;12.374;2024-02-26T07:59:07;15.83;;;10.47;;
12437;SDS011;6283;51.330;12.374;2024-02-26T08:01:34;17.43;;;10.60;;
12437;SDS011;6283;51.330;12.374;2024-02-26T08:03:59;16.03;;;10.00;;
12437;SDS011;6283;51.330;12.374;2024-02-26T08:06:25;15.53;;;10.67;;
12437;SDS011;6283;51.330;12.374;2024-02-26T08:08:51;15.50;;;9.80;;
12437;SDS011;6283;51.330;12.374;2024-02-26T08:11:17;11.37;;;8.30;;
12437;SDS011;6283;51.330;12.374;2024-02-26T08:13:43;12.30;;;7.93;;
12437;SDS011;6283;51.330;12.374;2024-02-26T08:16:09;13.47;;;9.23;;
12437;SDS011;6283;51.330;12.374;2024-02-26T08:18:34;17.43;;;10.93;;
12437;SDS011;6283;51.330;12.374;2024-02-26T08:21:00;13.03;;;9.07;;
12437;SDS011;6283;51.330;12.374;2024-02-26T08:23:25;16.70;;;10.73;;
12437;SDS011;6283;51.330;12.374;2024-02-26T08:25:51;14.43;;;9.17;;
12437;SDS011;6283;51.330;12.374;2024-02-26T08:28:17;12.87;;;8.80;;
12437;SDS011;6283;51.330;12.374;2024-02-26T08:30:43;14.93;;;8.63;;
12437;SDS011;6283;51.330;12.374;2024-02-26T08:33:09;11.23;;;8.20;;
12437;SDS011;6283;51.330;12.374;2024-02-26T08:35:35;12.67;;;8.33;;
12437;SDS011;6283;51.330;12.374;2024-02-26T08:38:01;13.53;;;8.57;;
12437;SDS011;6283;51.330;12.374;2024-02-26T08:40:27;13.07;;;8.57;;
12437;SDS011;6283;51.330;12.374;2024-02-26T08:42:54;13.67;;;9.00;;
12437;SDS011;6283;51.330;12.374;2024-02-26T08:45:20;11.77;;;7.27;;
12437;SDS011;6283;51.330;12.374;2024-02-26T08:47:46;14.70;;;8.03;;
12437;SDS011;6283;51.330;12.374;2024-02-26T08:50:11;11.43;;;8.10;;
12437;SDS011;6283;51.330;12.374;2024-02-26T08:52:38;14.27;;;8.60;;
12437;SDS011;6283;51.330;12.374;2024-02-26T08:55:03;16.63;;;8.80;;
12437;SDS011;6283;51.330;12.374;2024-02-26T08:57:30;11.40;;;7.90;;
12437;SDS011;6283;51.330;12.374;2024-02-26T08:59:58;17.03;;;8.30;;
12437;SDS011;6283;51.330;12.374;2024-02-26T09:02:25;13.60;;;7.97;;
12437;SDS011;6283;51.330;12.374;2024-02-26T09:04:51;12.73;;;7.60;;
12437;SDS011;6283;51.330;12.374;2024-02-26T09:07:19;9.53;;;6.70;;
12437;SDS011;6283;51.330;12.374;2024-02-26T09:09:45;12.80;;;7.80;;
12437;SDS011;6283;51.330;12.374;2024-02-26T09:12:10;9.50;;;7.30;;
12437;SDS011;6283;51.330;12.374;2024-02-26T09:14:36;16.47;;;8.50;;
12437;SDS011;6283;51.330;12.374;2024-02-26T09:17:02;10.13;;;7.13;;
12437;SDS011;6283;51.330;12.374;2024-02-26T09:19:28;10.60;;;7.87;;
12437;SDS011;6283;51.330;12.374;2024-02-26T09:21:53;8.43;;;7.03;;
12437;SDS011;6283;51.330;12.374;2024-02-26T09:24:22;11.40;;;7.13;;
12437;SDS011;6283;51.330;12.374;2024-02-26T09:26:48;9.87;;;6.43;;
12437;SDS011;6283;51.330;12.374;2024-02-26T09:29:14;9.77;;;6.70;;
12437;SDS011;6283;51.330;12.374;2024-02-26T09:31:40;7.70;;;6.13;;
12437;SDS011;6283;51.330;12.374;2024-02-26T09:34:06;12.37;;;6.70;;
12437;SDS011;6283;51.330;12.374;2024-02-26T09:36:33;7.13;;;5.93;;
12437;SDS011;6283;51.330;12.374;2024-02-26T09:38:59;10.20;;;6.00;;
12437;SDS011;6283;51.330;12.374;2024-02-26T09:41:24;7.93;;;5.37;;
12437;SDS011;6283;51.330;12.374;2024-02-26T09:43:55;6.43;;;5.07;;
12437;SDS011;6283;51.330;12.374;2024-02-26T09:46:22;20.63;;;6.70;;
12437;SDS011;6283;51.330;12.374;2024-02-26T09:48:50;6.60;;;5.00;;
12437;SDS011;6283;51.330;12.374;2024-02-26T09:51:16;9.23;;;5.17;;
12437;SDS011;6283;51.330;12.374;2024-02-26T09:53:43;8.27;;;5.10;;
12437;SDS011;6283;51.330;12.374;2024-02-26T09:56:11;6.37;;;4.33;;
12437;SDS011;6283;51.330;12.374;2024-02-26T09:58:40;6.77;;;4.43;;
12437;SDS011;6283;51.330;12.374;2024-02-26T10:01:09;6.40;;;4.33;;
12437;SDS011;6283;51.330;12.374;2024-02-26T10:03:38;9.43;;;4.43;;
12437;SDS011;6283;51.330;12.374;2024-02-26T10:06:09;8.23;;;4.20;;
12437;SDS011;6283;51.330;12.374;2024-02-26T10:08:35;4.23;;;3.57;;
12437;SDS011;6283;51.330;12.374;2024-02-26T10:11:04;4.93;;;3.50;;
12437;SDS011;6283;51.330;12.374;2024-02-26T10:13:31;4.57;;;3.50;;
12437;SDS011;6283;51.330;12.374;2024-02-26T10:15:57;9.13;;;4.13;;
12437;SDS011;6283;51.330;12.374;2024-02-26T10:18:23;5.30;;;3.90;;
12437;SDS011;6283;51.330;12.374;2024-02-26T10:21:01;8.70;;;4.13;;
12437;SDS011;6283;51.330;12.374;2024-02-26T10:23:27;7.00;;;3.87;;
12437;SDS011;6283;51.330;12.374;2024-02-26T10:25:56;10.00;;;4.60;;
12437;SDS011;6283;51.330;12.374;2024-02-26T10:28:22;6.37;;;4.80;;
12437;SDS011;6283;51.330;12.374;2024-02-26T10:30:51;7.73;;;4.40;;
12437;SDS011;6283;51.330;12.374;2024-02-26T10:33:17;6.47;;;4.37;;
12437;SDS011;6283;51.330;12.374;2024-02-26T10:35:46;7.20;;;4.60;;
12437;SDS011;6283;51.330;12.374;2024-02-26T10:38:12;10.53;;;4.50;;
12437;SDS011;6283;51.330;12.374;2024-02-26T10:40:38;6.87;;;3.60;;
12437;SDS011;6283;51.330;12.374;2024-02-26T10:43:04;8.07;;;4.10;;
12437;SDS011;6283;51.330;12.374;2024-02-26T10:45:30;5.20;;;3.60;;
12437;SDS011;6283;51.330;12.374;2024-02-26T10:47:57;7.57;;;4.10;;
12437;SDS011;6283;51.330;12.374;2024-02-26T10:50:23;7.27;;;4.83;;
12437;SDS011;6283;51.330;12.374;2024-02-26T10:52:49;6.13;;;4.17;;
12437;SDS011;6283;51.330;12.374;2024-02-26T10:55:16;5.67;;;3.90;;
12437;SDS011;6283;51.330;12.374;2024-02-26T10:57:45;6.17;;;3.97;;
12437;SDS011;6283;51.330;12.374;2024-02-26T11:00:13;7.80;;;4.00;;
12437;SDS011;6283;51.330;12.374;2024-02-26T11:02:40;6.93;;;4.20;;
12437;SDS011;6283;51.330;12.374;2024-02-26T11:05:07;6.30;;;4.50;;
12437;SDS011;6283;51.330;12.374;2024-02-26T11:07:36;8.30;;;4.18;;
12437;SDS011;6283;51.330;12.374;2024-02-26T11:10:03;7.53;;;4.10;;
12437;SDS011;6283;51.330;12.374;2024-02-26T11:12:30;5.93;;;3.90;;
12437;SDS011;6283;51.330;12.374;2024-02-26T11:14:57;6.97;;;3.80;;
12437;SDS011;6283;51.330;12.374;2024-02-26T11:17:32;6.95;;;3.75;;
12437;SDS011;6283;51.330;12.374;2024-02-26T11:20:01;7.60;;;4.20;;
12437;SDS011;6283;51.330;12.374;2024-02-26T11:22:27;5.00;;;4.30;;
12437;SDS011;6283;51.330;12.374;2024-02-26T11:24:54;8.20;;;4.43;;
12437;SDS011;6283;51.330;12.374;2024-02-26T11:27:25;5.60;;;4.32;;
12437;SDS011;6283;51.330;12.374;2024-02-26T11:29:56;8.43;;;4.77;;
12437;SDS011;6283;51.330;12.374;2024-02-26T11:32:25;8.47;;;4.40;;
12437;SDS011;6283;51.330;12.374;2024-02-26T11:34:53;7.65;;;5.15;;
12437;SDS011;6283;51.330;12.374;2024-02-26T11:37:19;6.65;;;4.72;;
12437;SDS011;6283;51.330;12.374;2024-02-26T11:39:45;7.17;;;4.90;;
12437;SDS011;6283;51.330;12.374;2024-02-26T11:42:15;7.07;;;4.93;;
12437;SDS011;6283;51.330;12.374;2024-02-26T11:44:41;8.55;;;5.13;;
12437;SDS011;6283;51.330;12.374;2024-02-26T11:47:13;11.75;;;4.65;;
12437;SDS011;6283;51.330;12.374;2024-02-26T11:49:48;9.15;;;4.95;;
12437;SDS011;6283;51.330;12.374;2024-02-26T11:52:14;6.80;;;4.40;;
12437;SDS011;6283;51.330;12.374;2024-02-26T11:59:47;5.77;;;4.60;;
12437;SDS011;6283;51.330;12.374;2024-02-26T12:02:17;8.13;;;4.77;;
12437;SDS011;6283;51.330;12.374;2024-02-26T12:05:09;6.00;;;4.80;;
12437;SDS011;6283;51.330;12.374;2024-02-26T12:07:49;8.97;;;5.03;;
12437;SDS011;6283;51.330;12.374;2024-02-26T12:13:00;12.93;;;5.60;;
12437;SDS011;6283;51.330;12.374;2024-02-26T12:15:31;7.93;;;5.40;;
12437;SDS011;6283;51.330;12.374;2024-02-26T12:18:02;11.23;;;5.83;;
12437;SDS011;6283;51.330;12.374;2024-02-26T12:20:29;9.50;;;6.17;;
12437;SDS011;6283;51.330;12.374;2024-02-26T12:22:55;9.85;;;6.18;;
12437;SDS011;6283;51.330;12.374;2024-02-26T12:25:23;7.97;;;5.70;;
12437;SDS011;6283;51.330;12.374;2024-02-26T12:27:54;7.27;;;6.00;;
12437;SDS011;6283;51.330;12.374;2024-02-26T12:30:20;10.73;;;5.88;;
12437;SDS011;6283;51.330;12.374;2024-02-26T12:32:50;10.13;;;5.90;;
12437;SDS011;6283;51.330;12.374;2024-02-26T12:35:16;9.00;;;6.03;;
12437;SDS011;6283;51.330;12.374;2024-02-26T12:37:43;8.17;;;5.30;;
12437;SDS011;6283;51.330;12.374;2024-02-26T12:40:09;7.38;;;5.60;;
12437;SDS011;6283;51.330;12.374;2024-02-26T12:42:36;6.53;;;5.50;;
12437;SDS011;6283;51.330;12.374;2024-02-26T12:45:06;6.87;;;5.57;;
12437;SDS011;6283;51.330;12.374;2024-02-26T12:47:43;7.38;;;5.82;;
12437;SDS011;6283;51.330;12.374;2024-02-26T12:50:16;7.97;;;5.97;;
12437;SDS011;6283;51.330;12.374;2024-02-26T12:52:45;8.63;;;5.10;;
12437;SDS011;6283;51.330;12.374;2024-02-26T12:55:16;10.52;;;5.45;;
12437;SDS011;6283;51.330;12.374;2024-02-26T12:57:44;9.05;;;5.57;;
12437;SDS011;6283;51.330;12.374;2024-02-26T13:00:12;9.48;;;6.60;;
12437;SDS011;6283;51.330;12.374;2024-02-26T13:02:40;9.68;;;5.78;;
12437;SDS011;6283;51.330;12.374;2024-02-26T13:05:09;7.72;;;5.30;;
12437;SDS011;6283;51.330;12.374;2024-02-26T13:07:42;7.57;;;5.80;;
12437;SDS011;6283;51.330;12.374;2024-02-26T13:10:08;8.40;;;5.57;;
12437;SDS011;6283;51.330;12.374;2024-02-26T13:12:37;8.50;;;5.57;;
12437;SDS011;6283;51.330;12.374;2024-02-26T13:15:13;7.15;;;5.45;;
12437;SDS011;6283;51.330;12.374;2024-02-26T13:17:40;8.57;;;5.15;;
12437;SDS011;6283;51.330;12.374;2024-02-26T13:20:07;7.25;;;5.43;;
12437;SDS011;6283;51.330;12.374;2024-02-26T13:22:37;9.88;;;6.20;;
12437;SDS011;6283;51.330;12.374;2024-02-26T13:25:03;11.43;;;5.80;;
12437;SDS011;6283;51.330;12.374;2024-02-26T13:27:29;9.68;;;5.60;;
12437;SDS011;6283;51.330;12.374;2024-02-26T13:30:11;8.32;;;5.63;;
12437;SDS011;6283;51.330;12.374;2024-02-26T13:32:38;5.90;;;5.35;;
12437;SDS011;6283;51.330;12.374;2024-02-26T13:35:08;8.55;;;6.22;;
12437;SDS011;6283;51.330;12.374;2024-02-26T13:37:35;12.85;;;6.15;;
12437;SDS011;6283;51.330;12.374;2024-02-26T13:40:11;8.52;;;5.88;;
12437;SDS011;6283;51.330;12.374;2024-02-26T13:42:37;11.38;;;6.85;;
12437;SDS011;6283;51.330;12.374;2024-02-26T13:45:03;8.63;;;5.38;;
12437;SDS011;6283;51.330;12.374;2024-02-26T13:47:31;11.95;;;6.10;;
12437;SDS011;6283;51.330;12.374;2024-02-26T13:49:58;8.10;;;5.72;;
12437;SDS011;6283;51.330;12.374;2024-02-26T13:52:24;9.35;;;6.22;;
12437;SDS011;6283;51.330;12.374;2024-02-26T13:54:50;10.65;;;6.28;;
12437;SDS011;6283;51.330;12.374;2024-02-26T13:57:16;29.70;;;8.70;;
12437;SDS011;6283;51.330;12.374;2024-02-26T13:59:42;10.00;;;6.10;;
12437;SDS011;6283;51.330;12.374;2024-02-26T14:02:09;9.90;;;5.85;;
12437;SDS011;6283;51.330;12.374;2024-02-26T14:04:35;9.55;;;5.88;;
12437;SDS011;6283;51.330;12.374;2024-02-26T14:07:02;9.32;;;5.60;;
12437;SDS011;6283;51.330;12.374;2024-02-26T14:09:28;7.53;;;5.45;;
12437;SDS011;6283;51.330;12.374;2024-02-26T14:11:54;9.38;;;5.88;;
12437;SDS011;6283;51.330;12.374;2024-02-26T14:14:20;7.95;;;5.72;;
12437;SDS011;6283;51.330;12.374;2024-02-26T14:16:45;10.13;;;5.50;;
12437;SDS011;6283;51.330;12.374;2024-02-26T14:19:11;9.32;;;5.57;;
12437;SDS011;6283;51.330;12.374;2024-02-26T14:21:37;6.40;;;5.80;;
12437;SDS011;6283;51.330;12.374;2024-02-26T14:24:03;9.20;;;5.20;;
12437;SDS011;6283;51.330;12.374;2024-02-26T14:26:29;10.57;;;5.35;;
12437;SDS011;6283;51.330;12.374;2024-02-26T14:28:55;7.88;;;5.28;;
12437;SDS011;6283;51.330;12.374;2024-02-26T14:31:21;6.80;;;4.82;;
12437;SDS011;6283;51.330;12.374;2024-02-26T14:33:47;6.28;;;4.55;;
12437;SDS011;6283;51.330;12.374;2024-02-26T14:36:13;7.70;;;4.80;;
12437;SDS011;6283;51.330;12.374;2024-02-26T14:38:39;6.22;;;4.78;;
12437;SDS011;6283;51.330;12.374;2024-02-26T14:41:04;5.45;;;4.85;;
12437;SDS011;6283;51.330;12.374;2024-02-26T14:43:31;7.47;;;4.93;;
12437;SDS011;6283;51.330;12.374;2024-02-26T14:45:57;6.03;;;4.72;;
12437;SDS011;6283;51.330;12.374;2024-02-26T14:48:24;6.47;;;5.40;;
12437;SDS011;6283;51.330;12.374;2024-02-26T14:50:50;5.57;;;4.95;;
12437;SDS011;6283;51.330;12.374;2024-02-26T14:53:16;6.75;;;4.95;;
12437;SDS011;6283;51.330;12.374;2024-02-26T14:55:42;7.63;;;4.80;;
12437;SDS011;6283;51.330;12.374;2024-02-26T14:58:08;7.32;;;5.35;;
12437;SDS011;6283;51.330;12.374;2024-02-26T15:00:36;6.20;;;4.68;;
12437;SDS011;6283;51.330;12.374;2024-02-26T15:03:04;8.25;;;5.25;;
12437;SDS011;6283;51.330;12.374;2024-02-26T15:05:29;6.90;;;4.97;;
12437;SDS011;6283;51.330;12.374;2024-02-26T15:07:55;6.28;;;4.88;;
12437;SDS011;6283;51.330;12.374;2024-02-26T15:10:20;8.00;;;5.22;;
12437;SDS011;6283;51.330;12.374;2024-02-26T15:12:46;8.32;;;4.45;;
12437;SDS011;6283;51.330;12.374;2024-02-26T15:15:12;8.63;;;4.88;;
12437;SDS011;6283;51.330;12.374;2024-02-26T15:17:38;7.10;;;4.73;;
12437;SDS011;6283;51.330;12.374;2024-02-26T15:20:04;7.23;;;4.70;;
12437;SDS011;6283;51.330;12.374;2024-02-26T15:22:32;8.33;;;4.73;;
12437;SDS011;6283;51.330;12.374;2024-02-26T15:24:58;8.50;;;4.70;;
12437;SDS011;6283;51.330;12.374;2024-02-26T15:27:24;7.80;;;4.73;;
12437;SDS011;6283;51.330;12.374;2024-02-26T15:29:49;6.53;;;5.00;;
12437;SDS011;6283;51.330;12.374;2024-02-26T15:32:22;7.90;;;4.87;;
12437;SDS011;6283;51.330;12.374;2024-02-26T15:34:49;9.98;;;5.38;;
12437;SDS011;6283;51.330;12.374;2024-02-26T15:37:15;6.97;;;4.80;;
12437;SDS011;6283;51.330;12.374;2024-02-26T15:39:41;11.63;;;5.93;;
12437;SDS011;6283;51.330;12.374;2024-02-26T15:42:07;10.20;;;6.10;;
12437;SDS011;6283;51.330;12.374;2024-02-26T15:44:32;8.17;;;5.70;;
12437;SDS011;6283;51.330;12.374;2024-02-26T15:46:58;9.20;;;6.10;;
12437;SDS011;6283;51.330;12.374;2024-02-26T15:49:24;9.00;;;6.30;;
12437;SDS011;6283;51.330;12.374;2024-02-26T15:51:50;10.70;;;6.93;;
12437;SDS011;6283;51.330;12.374;2024-02-26T15:54:16;13.33;;;7.80;;
12437;SDS011;6283;51.330;12.374;2024-02-26T15:56:41;8.57;;;6.93;;
12437;SDS011;6283;51.330;12.374;2024-02-26T15:59:07;10.47;;;8.03;;
12437;SDS011;6283;51.330;12.374;2024-02-26T16:01:33;11.40;;;7.53;;
12437;SDS011;6283;51.330;12.374;2024-02-26T16:03:58;10.63;;;7.07;;
12437;SDS011;6283;51.330;12.374;2024-02-26T16:06:43;12.63;;;7.77;;
12437;SDS011;6283;51.330;12.374;2024-02-26T16:09:11;12.27;;;7.57;;
12437;SDS011;6283;51.330;12.374;2024-02-26T16:11:36;10.80;;;7.00;;
12437;SDS011;6283;51.330;12.374;2024-02-26T16:14:09;12.17;;;7.60;;
12437;SDS011;6283;51.330;12.374;2024-02-26T16:16:36;12.13;;;7.20;;
12437;SDS011;6283;51.330;12.374;2024-02-26T16:19:11;11.57;;;7.63;;
12437;SDS011;6283;51.330;12.374;2024-02-26T16:21:41;10.63;;;7.10;;
12437;SDS011;6283;51.330;12.374;2024-02-26T16:24:07;12.13;;;7.70;;
12437;SDS011;6283;51.330;12.374;2024-02-26T16:26:32;12.07;;;8.07;;
12437;SDS011;6283;51.330;12.374;2024-02-26T16:28:58;10.27;;;7.83;;
12437;SDS011;6283;51.330;12.374;2024-02-26T16:31:23;11.50;;;7.60;;
12437;SDS011;6283;51.330;12.374;2024-02-26T16:33:50;12.33;;;8.13;;
12437;SDS011;6283;51.330;12.374;2024-02-26T16:36:15;10.40;;;7.63;;
12437;SDS011;6283;51.330;12.374;2024-02-26T16:38:41;14.73;;;8.37;;
12437;SDS011;6283;51.330;12.374;2024-02-26T16:41:06;12.47;;;8.17;;
12437;SDS011;6283;51.330;12.374;2024-02-26T16:43:32;13.27;;;8.50;;
12437;SDS011;6283;51.330;12.374;2024-02-26T16:46:00;14.83;;;9.73;;
12437;SDS011;6283;51.330;12.374;2024-02-26T16:48:26;13.73;;;8.50;;
12437;SDS011;6283;51.330;12.374;2024-02-26T16:50:52;14.40;;;9.10;;
12437;SDS011;6283;51.330;12.374;2024-02-26T16:53:18;14.77;;;9.77;;
12437;SDS011;6283;51.330;12.374;2024-02-26T16:55:43;13.43;;;9.07;;
12437;SDS011;6283;51.330;12.374;2024-02-26T16:58:09;11.93;;;8.67;;
12437;SDS011;6283;51.330;12.374;2024-02-26T17:00:35;12.70;;;8.13;;
12437;SDS011;6283;51.330;12.374;2024-02-26T17:03:01;13.37;;;8.83;;
12437;SDS011;6283;51.330;12.374;2024-02-26T17:05:26;13.37;;;9.00;;
12437;SDS011;6283;51.330;12.374;2024-02-26T17:07:52;13.33;;;9.20;;
12437;SDS011;6283;51.330;12.374;2024-02-26T17:10:18;15.03;;;8.57;;